Alba, TX (75410)

7:11 PM CST on January 17, 2017 (GMT -0600)
Ray Branch - Lake Fork | | Change Station

Elev 420 ft 32.81 °N, 95.58 °W | Updated 2 minutes ago

Overcast
Overcast
50.4 °F
Feels Like 50.4 °F
N
1.0
Wind Variable Wind from East
Gusts 5.0 mph

Today
High -- | Low -- °F
--% Chance of Precip.
Yesterday
High -- | Low -- °F
Precip. -- in
Pressure 30.12 in
Visibility 10.0 miles
Clouds Mostly Cloudy 7500 ft
Overcast 8000 ft
Dew Point 45 °F
Humidity 81%
Rainfall 0.02 in
Snow Depth Not available.
7:24 AM 5:41 PM
Waning Gibbous, 68% visible
METAR KJDD 180055Z AUTO 00000KT 10SM BKN075 OVC080 09/08 A3012 RMK AO2
Pressure 30.12 in
Visibility 10.0 miles
Clouds Mostly Cloudy 7500 ft
Overcast 8000 ft
Dew Point 45 °F
Humidity 81%
Rainfall 0.02 in
Snow Depth Not available.
7:24 AM 5:41 PM
Waning Gibbous, 68% visible
METAR KJDD 180055Z AUTO 00000KT 10SM BKN075 OVC080 09/08 A3012 RMK AO2

Get Your Daily Forecast Email!

Thanks for signing up!

Be on the lookout for a verification email in your inbox.

You'll start receiving the daily forecast at 8 AM.

×

10-Day Weather Forecast

Almanac

Astronomy

Jan. 17, 2017 Rise Set
Actual Time
Civil Twilight
Nautical Twilight
Astronomical Twilight
Moon
Length of Visible Light
Length of Day
Tomorrow will be .
, % of the Moon is Illuminated

Today's Extremes

State Highs State Lows

Community

WunderPhotos

Upload Photos

1,962,540 photos uploaded!

WunderBlog® & News

Nearby

Air Quality

  Air Quality AQ Index Pollutant
Not available.

Snow Depth

Station Depth Elevation

Earthquake Activity

City Distance Mag. Time & Date
Minimum magnitude displayed is 2.5.

Coastal Water Temperatures

Place Temperature

Stations

Nearby Weather Stations

Station Location Temp. Windchill Dew Point Humidity Wind Precip. Elev Updated Type
                   

Watches & Warnings

There are currently no watches in effect.